createdAt,value
2022-10-18T00:02:04.457Z,100571.06
2022-10-18T00:07:09.254Z,100569.91
2022-10-18T00:12:12.945Z,100558.72
2022-10-18T00:17:16.595Z,100552.22
2022-10-18T00:22:21.742Z,100558.28
2022-10-18T00:27:25.099Z,100554.25
2022-10-18T00:32:29.896Z,100549.75
2022-10-18T00:37:35.097Z,100545.16
2022-10-18T00:42:39.077Z,100540.19
2022-10-18T00:47:43.632Z,100543.19
2022-10-18T00:52:52.379Z,100538.78
2022-10-18T00:57:57.181Z,100536.44
2022-10-18T01:03:01.026Z,100527.28
2022-10-18T01:08:30.869Z,100530.13
2022-10-18T01:13:47.042Z,100520.50
2022-10-18T01:18:59.152Z,100522.75
2022-10-18T01:24:29.233Z,100516.75
2022-10-18T01:29:46.052Z,100518.50
2022-10-18T01:34:54.418Z,100506.41
2022-10-18T01:39:59.670Z,100508.59
2022-10-18T01:45:04.438Z,100512.81
2022-10-18T01:50:10.507Z,100512.22
2022-10-18T01:55:14.235Z,100516.78
2022-10-18T02:00:24.185Z,100504.22
2022-10-18T02:05:34.291Z,100506.28
2022-10-18T02:10:42.633Z,100504.84
2022-10-18T02:15:48.789Z,100500.63
2022-10-18T02:20:54.165Z,100494.75
2022-10-18T02:25:57.741Z,100500.75
2022-10-18T02:31:18.812Z,100485.81
2022-10-18T02:36:30.313Z,100490.81
2022-10-18T02:41:34.430Z,100491.47
2022-10-18T02:46:38.578Z,100492.63
2022-10-18T02:51:43.361Z,100500.84
2022-10-18T02:56:46.758Z,100493.94
2022-10-18T03:01:50.224Z,100484.66
2022-10-18T03:06:54.972Z,100487.59
2022-10-18T03:11:58.382Z,100489.13
2022-10-18T03:17:02.057Z,100485.72
2022-10-18T03:22:07.317Z,100485.53
2022-10-18T03:27:10.832Z,100493.16
2022-10-18T03:32:14.299Z,100492.28
2022-10-18T03:37:19.047Z,100478.94
2022-10-18T03:42:22.352Z,100476.09
2022-10-18T03:47:25.742Z,100477.88
2022-10-18T03:52:31.037Z,100472.16
2022-10-18T03:57:35.061Z,100474.56
2022-10-18T04:02:38.382Z,100476.22
2022-10-18T04:07:43.627Z,100473.59
2022-10-18T04:12:47.007Z,100465.47
2022-10-18T04:17:50.355Z,100467.13
2022-10-18T04:22:57.672Z,100461.28
2022-10-18T04:28:01.066Z,100460.75
2022-10-18T04:33:04.481Z,100469.22
2022-10-18T04:38:09.558Z,100462.38
2022-10-18T04:43:13.032Z,100467.44
2022-10-18T04:48:17.011Z,100468.19
2022-10-18T04:53:21.793Z,100466.44
2022-10-18T04:58:25.627Z,100468.16
2022-10-18T05:03:29.057Z,100470.84
2022-10-18T05:08:35.809Z,100460.59
2022-10-18T05:13:39.242Z,100474.50
2022-10-18T05:18:43.253Z,100470.31
2022-10-18T05:23:48.065Z,100461.16
2022-10-18T05:28:51.637Z,100472.03
2022-10-18T05:33:55.064Z,100463.66
2022-10-18T05:39:02.575Z,100475.78
2022-10-18T05:44:08.824Z,100476.88
2022-10-18T05:49:13.305Z,100475.19
2022-10-18T05:54:18.738Z,100479.00
2022-10-18T05:59:22.440Z,100479.81
2022-10-18T06:04:25.814Z,100482.56
2022-10-18T06:09:30.928Z,100481.47
2022-10-18T06:14:34.871Z,100476.94
2022-10-18T06:19:38.240Z,100481.75
2022-10-18T06:24:43.227Z,100485.84
2022-10-18T06:29:46.771Z,100489.84
2022-10-18T06:34:50.650Z,100482.47
2022-10-18T06:39:55.689Z,100491.53
2022-10-18T06:45:00.501Z,100475.53
2022-10-18T06:50:03.943Z,100469.88
2022-10-18T06:55:10.765Z,100463.31
2022-10-18T07:00:16.657Z,100458.44
2022-10-18T07:05:20.573Z,100476.38
2022-10-18T07:10:27.130Z,100457.41
2022-10-18T07:15:30.636Z,100455.06
2022-10-18T07:20:34.341Z,100453.41
2022-10-18T07:25:39.400Z,100462.19
2022-10-18T07:30:43.032Z,100458.75
2022-10-18T07:35:46.459Z,100444.75
2022-10-18T07:40:57.674Z,100435.13
2022-10-18T07:46:06.262Z,100438.56
2022-10-18T07:51:10.626Z,100444.59
2022-10-18T07:56:18.138Z,100433.81
2022-10-18T08:01:22.772Z,100433.75
2022-10-18T08:06:26.254Z,100433.00
2022-10-18T08:11:31.846Z,100429.34
2022-10-18T08:16:35.262Z,100437.34
2022-10-18T08:21:38.695Z,100433.03
2022-10-18T08:26:43.424Z,100429.34
2022-10-18T08:31:46.729Z,100423.34
2022-10-18T08:36:50.081Z,100426.97
2022-10-18T08:42:24.958Z,100411.63
2022-10-18T08:47:36.759Z,100402.75
2022-10-18T08:52:49.323Z,100410.16
2022-10-18T08:57:54.390Z,100408.69
2022-10-18T09:03:17.010Z,100390.72
2022-10-18T09:08:39.421Z,100381.72
2022-10-18T09:14:07.791Z,100381.00
2022-10-18T09:19:27.793Z,100365.50
2022-10-18T09:24:39.190Z,100365.34
2022-10-18T09:29:57.728Z,100352.28
2022-10-18T09:35:07.054Z,100342.09
2022-10-18T09:40:19.150Z,100338.53
2022-10-18T09:45:28.211Z,100330.50
2022-10-18T09:50:37.210Z,100330.25
2022-10-18T09:55:52.791Z,100329.56
2022-10-18T10:00:57.667Z,100326.81
2022-10-18T10:06:17.427Z,100322.34
2022-10-18T10:11:36.899Z,100310.97
2022-10-18T10:16:53.235Z,100289.72
2022-10-18T10:22:01.169Z,100292.59
2022-10-18T10:27:07.471Z,100282.47
2022-10-18T10:32:14.166Z,100280.34
2022-10-18T10:37:31.120Z,100260.44
2022-10-18T10:42:39.165Z,100248.56
2022-10-18T10:47:44.245Z,100246.28
2022-10-18T10:52:49.216Z,100220.38
2022-10-18T10:57:54.410Z,100235.31
2022-10-18T11:03:27.429Z,100219.59
2022-10-18T11:08:37.165Z,100212.16
2022-10-18T11:13:56.994Z,100200.41
2022-10-18T11:19:34.486Z,100195.88
2022-10-18T11:24:38.356Z,100192.38
2022-10-18T11:29:59.473Z,100182.09
2022-10-18T11:35:24.941Z,100159.25
2022-10-18T11:40:41.991Z,100162.25
2022-10-18T11:45:52.790Z,100156.03
2022-10-18T11:51:06.813Z,100139.72
2022-10-18T11:56:17.350Z,100147.13
2022-10-18T12:01:29.242Z,100138.25
2022-10-18T12:06:37.834Z,100134.38
2022-10-18T12:11:47.475Z,100128.34
2022-10-18T12:17:07.630Z,100122.94
2022-10-18T12:22:22.574Z,100124.44
2022-10-18T12:27:41.196Z,100110.34
2022-10-18T12:33:02.085Z,100101.44
2022-10-18T12:38:20.923Z,100096.88
2022-10-18T12:43:26.973Z,100090.16
2022-10-18T12:48:34.154Z,100085.88
2022-10-18T12:53:39.846Z,100086.44
2022-10-18T12:58:43.643Z,100079.09
2022-10-18T13:03:56.773Z,100069.16
2022-10-18T13:09:22.774Z,100061.53
2022-10-18T13:15:12.486Z,100054.63
2022-10-18T13:20:27.336Z,100053.81
2022-10-18T13:25:42.636Z,100051.03
2022-10-18T13:30:52.661Z,100045.19
2022-10-18T13:35:58.691Z,100038.41
2022-10-18T13:41:06.520Z,100040.38
2022-10-18T13:46:10.013Z,100039.75
2022-10-18T13:51:39.879Z,100030.94
2022-10-18T13:57:22.368Z,100021.59
2022-10-18T14:03:03.481Z,100005.06
2022-10-18T14:08:23.879Z,99998.44
2022-10-18T14:13:35.882Z,99982.72
2022-10-18T14:18:44.148Z,99983.03
2022-10-18T14:23:48.646Z,99977.84
2022-10-18T14:29:06.474Z,99981.50
2022-10-18T14:34:16.651Z,99968.53
2022-10-18T14:39:22.941Z,99965.19
2022-10-18T14:44:30.126Z,99962.69
2022-10-18T14:49:34.261Z,99947.25
2022-10-18T14:54:40.043Z,99946.66
2022-10-18T14:59:51.992Z,99946.81
2022-10-18T15:05:01.493Z,99951.47
2022-10-18T15:10:11.516Z,99943.88
2022-10-18T15:15:22.467Z,99946.72
2022-10-18T15:20:31.247Z,99943.41
2022-10-18T15:25:36.335Z,99940.97
2022-10-18T15:30:43.330Z,99942.91
2022-10-18T15:35:48.927Z,99940.38
2022-10-18T15:40:52.821Z,99937.13
2022-10-18T15:46:03.372Z,99942.56
2022-10-18T15:51:23.263Z,99945.28
2022-10-18T15:56:32.779Z,99944.44
2022-10-18T16:01:39.982Z,99949.72
2022-10-18T16:06:43.434Z,99951.53
2022-10-18T16:11:52.919Z,99944.56
2022-10-18T16:17:03.526Z,99942.81
2022-10-18T16:22:08.502Z,99937.59
2022-10-18T16:27:12.236Z,99942.84
2022-10-18T16:32:17.115Z,99939.41
2022-10-18T16:37:20.534Z,99932.41
2022-10-18T16:42:23.914Z,99939.41
2022-10-18T16:47:28.807Z,99941.16
2022-10-18T16:52:32.490Z,99928.94
2022-10-18T16:57:36.208Z,99931.56
2022-10-18T17:02:41.030Z,99931.50
2022-10-18T17:07:44.790Z,99926.22
2022-10-18T17:12:48.465Z,99914.88
2022-10-18T17:17:53.326Z,99915.66
2022-10-18T17:22:56.800Z,99919.97
2022-10-18T17:28:00.340Z,99910.28
2022-10-18T17:33:07.442Z,99910.28
2022-10-18T17:38:12.705Z,99906.69
2022-10-18T17:43:16.160Z,99910.03
2022-10-18T17:48:21.447Z,99909.94
2022-10-18T17:53:28.584Z,99908.97
2022-10-18T17:58:32.498Z,99902.06
2022-10-18T18:03:37.469Z,99899.34
2022-10-18T18:08:40.881Z,99886.22
2022-10-18T18:13:44.349Z,99881.81
2022-10-18T18:18:52.282Z,99877.44
2022-10-18T18:23:56.229Z,99874.88
2022-10-18T18:28:59.825Z,99866.06
2022-10-18T18:34:04.750Z,99868.50
2022-10-18T18:39:09.109Z,99854.50
2022-10-18T18:44:12.560Z,99853.47
2022-10-18T18:49:17.498Z,99846.44
2022-10-18T18:54:22.187Z,99837.59
2022-10-18T18:59:26.315Z,99840.22
2022-10-18T19:04:31.423Z,99836.75
2022-10-18T19:09:38.050Z,99842.69
2022-10-18T19:14:41.587Z,99838.84
2022-10-18T19:19:46.802Z,99845.69
2022-10-18T19:24:50.301Z,99834.28
2022-10-18T19:29:53.685Z,99816.13
2022-10-18T19:34:58.860Z,99816.72
2022-10-18T19:40:02.611Z,99808.63
2022-10-18T19:45:08.709Z,99805.16
2022-10-18T19:50:13.722Z,99800.06
2022-10-18T19:55:18.961Z,99799.56
2022-10-18T20:00:22.473Z,99796.03
2022-10-18T20:05:27.830Z,99787.22
2022-10-18T20:10:31.294Z,99783.66
2022-10-18T20:15:34.975Z,99774.06
2022-10-18T20:20:42.405Z,99771.59
2022-10-18T20:25:57.696Z,99767.03
2022-10-18T20:31:02.954Z,99757.88
2022-10-18T20:36:09.313Z,99752.72
2022-10-18T20:41:14.774Z,99746.09
2022-10-18T20:46:18.233Z,99744.16
2022-10-18T20:51:23.501Z,99731.16
2022-10-18T20:56:28.283Z,99724.19
2022-10-18T21:01:33.253Z,99711.06
2022-10-18T21:06:41.478Z,99707.19
2022-10-18T21:11:47.037Z,99700.31
2022-10-18T21:16:51.755Z,99689.03
2022-10-18T21:21:58.938Z,99683.75
2022-10-18T21:27:02.375Z,99674.94
2022-10-18T21:32:06.468Z,99666.44
2022-10-18T21:37:11.557Z,99657.41
2022-10-18T21:42:14.963Z,99642.56
2022-10-18T21:47:18.337Z,99641.53
2022-10-18T21:52:23.134Z,99627.41
2022-10-18T21:57:26.639Z,99625.78
2022-10-18T22:02:30.454Z,99614.50
2022-10-18T22:07:35.872Z,99616.19
2022-10-18T22:12:39.862Z,99617.75
2022-10-18T22:17:43.543Z,99600.44
2022-10-18T22:22:48.358Z,99590.16
2022-10-18T22:27:51.723Z,99585.59
2022-10-18T22:32:55.190Z,99568.38
2022-10-18T22:38:00.271Z,99565.84
2022-10-18T22:43:03.653Z,99556.97
2022-10-18T22:48:07.997Z,99549.69
2022-10-18T22:53:12.873Z,99541.09
2022-10-18T22:58:16.326Z,99534.91
2022-10-18T23:03:20.300Z,99528.16
2022-10-18T23:08:25.397Z,99527.31
2022-10-18T23:13:29.031Z,99519.69
2022-10-18T23:18:32.539Z,99525.59
2022-10-18T23:23:39.422Z,99522.03
2022-10-18T23:28:44.400Z,99517.63
2022-10-18T23:33:49.631Z,99508.97
2022-10-18T23:38:55.030Z,99507.84
2022-10-18T23:43:58.440Z,99501.38
2022-10-18T23:49:01.863Z,99503.06
2022-10-18T23:54:06.863Z,99488.50
2022-10-18T23:59:10.206Z,99478.19
